Time;durP1;ratioP1;P1;durP2;ratioP2;P2;SDS_P1;SDS_P2;PMS_P1;PMS_P2;Temp;Humidity;BMP_temperature;BMP_pressure;BME280_temperature;BME280_humidity;BME280_pressure;Samples;Min_cycle;Max_cycle;Signal;HPM_P1;HPM_P2
2022/12/21 00:01:24;;;;;;;43.88;21.17;;;-1.80;99.90;;;;;;5053708;28;20225;-84
2022/12/21 00:03:54;;;;;;;49.22;19.45;;;-1.80;99.90;;;;;;5050856;28;20251;-83
2022/12/21 00:06:22;;;;;;;41.70;19.83;;;-1.80;99.90;;;;;;5048095;28;20209;-84
2022/12/21 00:08:51;;;;;;;43.60;18.85;;;-1.90;99.90;;;;;;5047685;28;20586;-84
2022/12/21 00:11:18;;;;;;;43.15;18.13;;;-1.90;99.90;;;;;;5054166;28;20305;-83
2022/12/21 00:13:45;;;;;;;41.55;17.73;;;-1.90;99.90;;;;;;5053972;28;20396;-83
2022/12/21 00:16:14;;;;;;;40.67;18.80;;;-1.90;99.90;;;;;;5057122;28;20197;-84
2022/12/21 00:18:42;;;;;;;49.10;21.08;;;-1.90;99.90;;;;;;5051476;28;20204;-84
2022/12/21 00:21:13;;;;;;;55.30;21.77;;;-1.90;99.90;;;;;;5047650;28;20235;-84
2022/12/21 00:23:42;;;;;;;40.03;18.17;;;-1.90;99.90;;;;;;5054512;28;20215;-84
2022/12/21 00:26:11;;;;;;;46.22;17.55;;;-1.90;99.90;;;;;;5049438;28;20213;-84
2022/12/21 00:28:38;;;;;;;56.80;22.73;;;-1.90;99.90;;;;;;5048758;28;20327;-84
2022/12/21 00:31:08;;;;;;;45.85;20.55;;;-1.90;99.90;;;;;;5047155;28;20198;-84
2022/12/21 00:33:36;;;;;;;42.03;20.20;;;-1.90;99.90;;;;;;5046293;28;20211;-84
2022/12/21 00:36:04;;;;;;;40.97;20.83;;;-1.90;99.90;;;;;;5050752;28;20232;-84
2022/12/21 00:38:32;;;;;;;45.03;19.83;;;-1.90;99.90;;;;;;5045709;28;20483;-84
2022/12/21 00:41:03;;;;;;;41.95;19.13;;;-1.90;99.90;;;;;;5046801;28;20599;-84
2022/12/21 00:43:31;;;;;;;48.10;20.48;;;-1.90;99.90;;;;;;5051470;28;20208;-84
2022/12/21 00:45:58;;;;;;;35.95;18.58;;;-1.80;99.90;;;;;;5047152;28;20213;-84
2022/12/21 00:48:26;;;;;;;40.63;20.02;;;-1.80;99.90;;;;;;5045002;28;20642;-84
2022/12/21 00:50:53;;;;;;;40.28;20.27;;;-1.80;99.90;;;;;;5047074;28;20200;-84
2022/12/21 00:53:20;;;;;;;40.30;19.35;;;-1.70;99.90;;;;;;5046575;28;20276;-84
2022/12/21 00:55:55;;;;;;;52.40;22.13;;;-1.70;99.90;;;;;;5046097;28;20252;-84
2022/12/21 00:58:25;;;;;;;54.10;20.88;;;-1.60;99.90;;;;;;5048364;28;20219;-84
2022/12/21 01:00:52;;;;;;;40.80;16.92;;;-1.70;99.90;;;;;;5047521;28;20251;-84
2022/12/21 01:03:19;;;;;;;33.65;18.17;;;-1.70;99.90;;;;;;5045982;28;20243;-84
2022/12/21 01:05:47;;;;;;;43.47;20.52;;;-1.70;99.90;;;;;;5048659;28;20669;-84
2022/12/21 01:08:14;;;;;;;35.53;18.00;;;-1.60;99.90;;;;;;5049303;28;20210;-85
2022/12/21 01:10:41;;;;;;;47.55;20.27;;;-1.50;99.90;;;;;;5047084;28;20641;-84
2022/12/21 01:13:08;;;;;;;41.08;18.17;;;-1.60;99.90;;;;;;5045994;28;20234;-84
2022/12/21 01:15:40;;;;;;;49.67;19.33;;;-1.60;99.90;;;;;;5046279;28;20373;-84
2022/12/21 01:18:07;;;;;;;44.63;19.13;;;-1.60;99.90;;;;;;5043801;28;20261;-84
2022/12/21 01:20:34;;;;;;;41.38;20.25;;;-1.50;99.90;;;;;;5050226;28;20513;-84
2022/12/21 01:23:01;;;;;;;48.53;17.55;;;-1.60;99.90;;;;;;5048672;28;20444;-84
2022/12/21 01:25:28;;;;;;;42.50;17.63;;;-1.50;99.90;;;;;;5048156;28;20270;-84
2022/12/21 01:27:55;;;;;;;42.42;17.95;;;-1.50;99.90;;;;;;5043340;28;20306;-84
2022/12/21 01:30:21;;;;;;;45.75;18.60;;;-1.40;99.90;;;;;;5048544;28;20268;-84
2022/12/21 01:32:50;;;;;;;35.58;17.90;;;-1.60;99.90;;;;;;5058633;28;20316;-84
2022/12/21 01:35:17;;;;;;;43.15;20.17;;;-1.60;99.90;;;;;;5048681;28;20220;-84
2022/12/21 01:37:44;;;;;;;47.15;19.77;;;-1.60;99.90;;;;;;5048372;28;20227;-84
2022/12/21 01:40:12;;;;;;;41.38;18.05;;;-1.70;99.90;;;;;;5046543;28;20291;-84
2022/12/21 01:42:39;;;;;;;39.28;18.15;;;-1.70;99.90;;;;;;5047399;28;20201;-84
2022/12/21 01:45:15;;;;;;;38.13;17.15;;;-1.50;99.90;;;;;;5053512;28;20656;-84
2022/12/21 01:47:45;;;;;;;35.45;16.30;;;-1.50;99.90;;;;;;5046144;28;20239;-84
2022/12/21 01:50:34;;;;;;;33.92;15.98;;;-1.60;99.90;;;;;;5043842;28;20628;-84
2022/12/21 01:53:07;;;;;;;39.30;18.58;;;-1.60;99.90;;;;;;5036530;28;20215;-84
2022/12/21 01:55:36;;;;;;;54.45;18.77;;;-1.50;99.90;;;;;;5049090;28;20711;-85
2022/12/21 01:58:05;;;;;;;43.53;18.27;;;-1.50;99.90;;;;;;5046141;28;20304;-85
2022/12/21 02:00:32;;;;;;;36.80;15.52;;;-1.60;99.90;;;;;;5048719;28;20220;-85
2022/12/21 02:03:04;;;;;;;38.00;19.40;;;-1.70;99.90;;;;;;5045738;28;20478;-84
2022/12/21 02:05:40;;;;;;;39.40;17.83;;;-1.70;99.90;;;;;;5047244;28;20209;-84
2022/12/21 02:08:07;;;;;;;46.72;21.15;;;-1.60;99.90;;;;;;5045943;28;20378;-84
2022/12/21 02:10:34;;;;;;;37.38;17.67;;;-1.70;99.90;;;;;;5048850;28;20196;-85
2022/12/21 02:13:03;;;;;;;40.60;18.88;;;-1.70;99.90;;;;;;5048763;28;20629;-85
2022/12/21 02:15:51;;;;;;;51.00;19.60;;;-1.60;99.90;;;;;;5045301;28;20270;-85
2022/12/21 02:18:31;;;;;;;40.72;17.58;;;-1.60;99.90;;;;;;5052231;28;20227;-85
2022/12/21 02:21:22;;;;;;;38.53;18.77;;;-1.50;99.90;;;;;;5053089;28;20289;-85
2022/12/21 02:24:29;;;;;;;55.45;20.30;;;-1.50;99.90;;;;;;5047272;28;20220;-85
2022/12/21 02:27:31;;;;;;;48.67;21.05;;;-1.50;99.90;;;;;;5043285;28;20262;-85
2022/12/21 02:30:13;;;;;;;53.13;20.23;;;-1.50;99.90;;;;;;5035670;28;20359;-85
2022/12/21 02:33:05;;;;;;;53.90;20.33;;;-1.60;99.90;;;;;;5058664;28;20511;-84
2022/12/21 02:35:47;;;;;;;47.53;21.45;;;-1.50;99.90;;;;;;5041544;28;20600;-85
2022/12/21 02:38:27;;;;;;;47.17;19.08;;;-1.60;99.90;;;;;;5046012;28;20270;-84
2022/12/21 02:41:01;;;;;;;54.55;19.60;;;-1.60;99.90;;;;;;5047529;28;20274;-85
2022/12/21 02:46:25;;;;;;;55.45;23.70;;;-1.60;99.90;;;;;;5048151;28;20213;-85
2022/12/21 02:48:58;;;;;;;38.45;18.27;;;-1.50;99.90;;;;;;5046546;28;20224;-85
2022/12/21 02:51:33;;;;;;;48.55;20.73;;;-1.40;99.90;;;;;;5047942;28;20240;-85
2022/12/21 02:54:00;;;;;;;51.72;20.90;;;-1.50;99.90;;;;;;5050793;28;20342;-85
2022/12/21 02:56:27;;;;;;;55.83;20.55;;;-1.60;99.90;;;;;;5050113;28;20212;-85
2022/12/21 02:58:54;;;;;;;40.22;18.48;;;-1.70;99.90;;;;;;5054665;28;20207;-85
2022/12/21 03:01:38;;;;;;;39.75;19.52;;;-1.60;99.90;;;;;;5051128;28;20686;-85
2022/12/21 03:04:22;;;;;;;58.72;23.33;;;-1.50;99.90;;;;;;5053037;28;20207;-84
2022/12/21 03:07:07;;;;;;;46.17;20.50;;;-1.40;99.90;;;;;;5048749;28;20230;-85
2022/12/21 03:09:44;;;;;;;44.28;20.20;;;-1.40;99.90;;;;;;5048514;28;20451;-85
2022/12/21 03:12:19;;;;;;;54.28;21.85;;;-1.50;99.90;;;;;;5050146;28;20233;-85
2022/12/21 03:14:54;;;;;;;52.92;19.42;;;-1.60;99.90;;;;;;5051858;28;20252;-85
2022/12/21 03:17:29;;;;;;;41.53;18.70;;;-1.60;99.90;;;;;;5047189;28;20199;-85
2022/12/21 03:20:03;;;;;;;45.47;22.83;;;-1.60;99.90;;;;;;5045723;28;20269;-85
2022/12/21 03:22:35;;;;;;;43.33;18.25;;;-1.60;99.90;;;;;;5052742;28;20227;-84
2022/12/21 03:25:08;;;;;;;47.83;19.10;;;-1.50;99.90;;;;;;5050866;28;20273;-85
2022/12/21 03:27:39;;;;;;;42.58;18.25;;;-1.50;99.90;;;;;;5055323;28;20304;-85
2022/12/21 03:30:09;;;;;;;49.85;19.05;;;-1.40;99.90;;;;;;5045236;28;20587;-85
2022/12/21 03:32:41;;;;;;;49.63;18.60;;;-1.50;99.90;;;;;;5049828;28;20222;-85
2022/12/21 03:35:18;;;;;;;48.25;18.48;;;-1.40;99.90;;;;;;5048940;28;20264;-85
2022/12/21 03:37:47;;;;;;;48.80;21.02;;;-1.40;99.90;;;;;;5048584;28;20203;-85
2022/12/21 03:40:18;;;;;;;49.85;18.30;;;-1.40;99.90;;;;;;5048006;28;20226;-84
2022/12/21 03:42:51;;;;;;;47.95;20.63;;;-1.50;99.90;;;;;;5053173;28;20263;-85
2022/12/21 03:45:22;;;;;;;54.17;18.10;;;-1.50;99.90;;;;;;5049053;28;20260;-85
2022/12/21 03:47:53;;;;;;;43.80;20.73;;;-1.40;99.90;;;;;;5054165;28;20244;-85
2022/12/21 03:50:26;;;;;;;45.03;18.33;;;-1.50;99.90;;;;;;5047194;28;20242;-85
2022/12/21 03:53:00;;;;;;;49.28;20.58;;;-1.50;99.90;;;;;;5052862;28;20712;-85
2022/12/21 03:55:31;;;;;;;41.97;16.95;;;-1.50;99.90;;;;;;5070263;28;20213;-84
2022/12/21 03:57:58;;;;;;;41.00;19.05;;;-1.40;99.90;;;;;;5050536;28;20214;-85
2022/12/21 04:00:27;;;;;;;46.92;21.63;;;-1.50;99.90;;;;;;5045976;28;20719;-85
2022/12/21 04:03:00;;;;;;;54.15;20.40;;;-1.50;99.90;;;;;;5047279;28;20224;-85
2022/12/21 04:05:32;;;;;;;55.55;21.25;;;-1.60;99.90;;;;;;5057701;28;20211;-85
2022/12/21 04:08:00;;;;;;;48.55;20.95;;;-1.70;99.90;;;;;;5045113;28;20244;-84
2022/12/21 04:10:27;;;;;;;50.03;20.95;;;-1.70;99.90;;;;;;5046884;28;20228;-84
2022/12/21 04:12:53;;;;;;;54.42;19.58;;;-1.70;99.90;;;;;;5048435;28;20310;-85
2022/12/21 04:15:23;;;;;;;42.63;17.75;;;-1.70;99.90;;;;;;5046714;28;20200;-85
2022/12/21 04:17:53;;;;;;;43.10;20.35;;;-1.60;99.90;;;;;;5047484;28;20209;-85
2022/12/21 04:20:20;;;;;;;47.92;20.67;;;-1.70;99.90;;;;;;5046419;28;20224;-85
2022/12/21 04:28:23;;;;;;;50.45;18.60;;;-1.60;99.90;;;;;;5045582;28;20207;-85
2022/12/21 04:30:50;;;;;;;42.22;17.00;;;-1.70;99.90;;;;;;5049663;28;20770;-84
2022/12/21 04:33:19;;;;;;;41.08;17.77;;;-1.60;99.90;;;;;;5047572;28;20247;-85
2022/12/21 04:38:34;;;;;;;45.80;18.15;;;-1.70;99.90;;;;;;5049554;28;20220;-84
2022/12/21 04:41:01;;;;;;;40.85;18.58;;;-1.70;99.90;;;;;;5046204;28;20229;-85
2022/12/21 04:43:29;;;;;;;43.33;20.38;;;-1.70;99.90;;;;;;5049260;28;20261;-85
2022/12/21 04:46:03;;;;;;;44.85;18.33;;;-1.70;99.90;;;;;;5046577;28;20278;-84
2022/12/21 04:48:30;;;;;;;51.03;20.60;;;-1.60;99.90;;;;;;5047902;28;20228;-85
2022/12/21 04:51:02;;;;;;;40.10;19.00;;;-1.70;99.90;;;;;;5043579;28;20305;-84
2022/12/21 04:53:29;;;;;;;47.17;16.45;;;-1.70;99.90;;;;;;5052954;28;20639;-85
2022/12/21 04:55:58;;;;;;;43.47;18.30;;;-1.60;99.90;;;;;;5046209;28;20273;-85
2022/12/21 04:58:24;;;;;;;49.78;19.67;;;-1.60;99.90;;;;;;5052858;28;20263;-85
2022/12/21 05:00:51;;;;;;;43.28;20.35;;;-1.60;99.90;;;;;;5050984;28;20243;-85
2022/12/21 05:03:20;;;;;;;37.65;18.45;;;-1.60;99.90;;;;;;5045628;28;20271;-85
2022/12/21 05:05:47;;;;;;;47.67;16.77;;;-1.70;99.90;;;;;;5049127;28;20212;-86
2022/12/21 05:08:14;;;;;;;46.25;20.30;;;-1.60;99.90;;;;;;5050660;28;20282;-85
2022/12/21 05:10:41;;;;;;;37.45;18.52;;;-1.60;99.90;;;;;;5050032;28;20495;-85
2022/12/21 05:13:09;;;;;;;47.45;21.10;;;-1.70;99.90;;;;;;5051949;28;20632;-86
2022/12/21 05:15:37;;;;;;;39.03;18.27;;;-1.60;99.90;;;;;;5058829;28;20713;-85
2022/12/21 05:18:05;;;;;;;48.83;18.98;;;-1.70;99.90;;;;;;5043899;28;20204;-84
2022/12/21 05:20:32;;;;;;;44.60;20.45;;;-1.70;99.90;;;;;;5045088;28;20266;-84
2022/12/21 05:22:59;;;;;;;40.42;19.10;;;-1.80;99.90;;;;;;5048934;28;20304;-84
2022/12/21 05:25:26;;;;;;;35.42;17.13;;;-1.80;99.90;;;;;;5043971;28;20239;-84
2022/12/21 05:27:53;;;;;;;42.65;18.85;;;-1.80;99.90;;;;;;5047419;28;20216;-84
2022/12/21 05:30:21;;;;;;;35.20;19.33;;;-1.80;99.90;;;;;;5046124;28;20235;-84
2022/12/21 05:32:48;;;;;;;35.45;19.30;;;-1.70;99.90;;;;;;5043815;28;20251;-84
2022/12/21 05:35:15;;;;;;;47.03;19.08;;;-1.70;99.90;;;;;;5040995;28;20308;-84
2022/12/21 05:37:42;;;;;;;42.28;21.58;;;-1.70;99.90;;;;;;5051298;28;20627;-84
2022/12/21 05:40:10;;;;;;;41.70;18.90;;;-1.70;99.90;;;;;;5042882;28;20250;-84
2022/12/21 05:42:37;;;;;;;38.97;17.40;;;-1.70;99.90;;;;;;5053657;28;20282;-84
2022/12/21 05:45:04;;;;;;;43.78;16.35;;;-1.70;99.90;;;;;;5049119;28;20268;-83
2022/12/21 05:47:32;;;;;;;40.33;18.00;;;-1.70;99.90;;;;;;5046361;28;20476;-83
2022/12/21 05:49:59;;;;;;;46.80;18.40;;;-1.70;99.90;;;;;;5044699;28;20293;-83
2022/12/21 05:52:26;;;;;;;46.60;18.38;;;-1.80;99.90;;;;;;5045159;28;20231;-84
2022/12/21 05:54:53;;;;;;;46.17;19.52;;;-1.80;99.90;;;;;;5050153;28;20303;-83
2022/12/21 05:57:20;;;;;;;47.53;21.10;;;-1.80;99.90;;;;;;5054829;28;20649;-83
2022/12/21 05:59:47;;;;;;;42.00;18.95;;;-1.80;99.90;;;;;;5051590;28;20359;-83
2022/12/21 06:02:14;;;;;;;41.63;18.13;;;-1.70;99.90;;;;;;5045420;28;20671;-84
2022/12/21 06:04:42;;;;;;;44.95;22.70;;;-1.60;99.90;;;;;;5048155;28;20293;-83
2022/12/21 06:07:10;;;;;;;35.95;19.55;;;-1.70;99.90;;;;;;5053768;28;20231;-85
2022/12/21 06:09:37;;;;;;;40.35;16.88;;;-1.70;99.90;;;;;;5055100;28;20400;-85
2022/12/21 06:12:04;;;;;;;37.92;19.42;;;-1.70;99.90;;;;;;5055919;28;20194;-85
2022/12/21 06:14:31;;;;;;;46.80;20.50;;;-1.70;99.90;;;;;;5055874;28;20204;-87
2022/12/21 06:16:58;;;;;;;43.10;18.08;;;-1.60;99.90;;;;;;5059271;28;20242;-85
2022/12/21 06:19:25;;;;;;;36.65;19.20;;;-1.60;99.90;;;;;;5049356;28;20286;-85
2022/12/21 06:21:53;;;;;;;43.20;17.67;;;-1.60;99.90;;;;;;5053767;28;20876;-85
2022/12/21 06:24:21;;;;;;;41.67;19.88;;;-1.50;99.90;;;;;;5046653;28;20254;-85
2022/12/21 06:26:48;;;;;;;45.88;19.70;;;-1.60;99.90;;;;;;5050076;28;20321;-85
2022/12/21 06:29:15;;;;;;;49.97;20.38;;;-1.40;99.90;;;;;;5048658;28;20263;-85
2022/12/21 06:31:42;;;;;;;39.88;17.38;;;-1.50;99.90;;;;;;5058155;28;20227;-85
2022/12/21 06:34:11;;;;;;;43.78;20.77;;;-1.50;99.90;;;;;;5048144;28;20199;-85
2022/12/21 06:36:37;;;;;;;43.00;19.15;;;-1.40;99.90;;;;;;5061543;28;20200;-85
2022/12/21 06:39:06;;;;;;;41.75;18.58;;;-1.40;99.90;;;;;;5056552;28;20701;-86
2022/12/21 06:41:33;;;;;;;37.97;17.98;;;-1.40;99.90;;;;;;5064439;28;20277;-86
2022/12/21 06:44:00;;;;;;;46.83;21.25;;;-1.40;99.90;;;;;;5051488;28;20494;-85
2022/12/21 06:46:27;;;;;;;50.25;18.27;;;-1.30;99.90;;;;;;5062535;28;20204;-85
2022/12/21 06:48:54;;;;;;;43.95;18.52;;;-1.30;99.90;;;;;;5054206;28;20240;-85
2022/12/21 06:51:23;;;;;;;64.32;21.40;;;-1.30;99.90;;;;;;5049480;28;20949;-85
2022/12/21 06:53:51;;;;;;;42.25;18.02;;;-1.30;99.90;;;;;;5054421;28;20764;-85
2022/12/21 06:56:21;;;;;;;49.58;22.60;;;-1.30;99.90;;;;;;5055982;28;20316;-85
2022/12/21 06:58:49;;;;;;;41.17;19.60;;;-1.30;99.90;;;;;;5048981;28;20572;-84
2022/12/21 07:01:18;;;;;;;48.25;20.60;;;-1.30;99.90;;;;;;5048268;28;20201;-85
2022/12/21 07:03:45;;;;;;;56.60;22.38;;;-1.40;99.90;;;;;;5050202;28;20223;-84
2022/12/21 07:06:14;;;;;;;134.35;70.28;;;-1.50;99.90;;;;;;5046712;28;20231;-84
2022/12/21 07:08:41;;;;;;;47.63;21.25;;;-1.40;99.90;;;;;;5047457;28;20205;-85
2022/12/21 07:11:09;;;;;;;68.53;28.77;;;-1.30;99.90;;;;;;5052820;28;20209;-84
2022/12/21 07:13:39;;;;;;;69.47;35.55;;;-1.20;99.90;;;;;;5055644;28;20289;-84
2022/12/21 07:16:07;;;;;;;85.45;41.90;;;-1.10;99.90;;;;;;5057470;28;20236;-89
2022/12/21 07:18:35;;;;;;;42.90;21.88;;;-1.20;99.90;;;;;;5050822;28;20288;-84
2022/12/21 07:21:05;;;;;;;89.33;43.60;;;-1.30;99.90;;;;;;5050656;28;20206;-86
2022/12/21 07:23:33;;;;;;;56.95;27.02;;;-1.30;99.90;;;;;;5052263;28;20498;-84
2022/12/21 07:26:01;;;;;;;47.92;20.02;;;-1.10;99.90;;;;;;5052127;28;20271;-84
2022/12/21 07:28:27;;;;;;;47.78;19.70;;;-1.20;99.90;;;;;;5047555;28;20205;-84
2022/12/21 07:31:03;;;;;;;48.53;20.33;;;-1.20;99.90;;;;;;5050203;28;20238;-84
2022/12/21 07:33:30;;;;;;;59.73;21.00;;;-1.20;99.90;;;;;;5052910;28;20755;-85
2022/12/21 07:35:59;;;;;;;50.78;20.85;;;-1.10;99.90;;;;;;5051481;28;20482;-85
2022/12/21 07:38:26;;;;;;;46.15;19.77;;;-1.10;99.90;;;;;;5047828;28;20205;-85
2022/12/21 07:40:56;;;;;;;52.53;20.35;;;-1.10;99.90;;;;;;5051765;28;20241;-85
2022/12/21 07:43:24;;;;;;;51.22;19.52;;;-1.10;99.90;;;;;;5048746;28;20264;-84
2022/12/21 07:45:51;;;;;;;58.63;23.10;;;-1.00;99.90;;;;;;5055207;28;20277;-84
2022/12/21 07:48:20;;;;;;;56.23;23.13;;;-1.10;99.90;;;;;;5048147;28;20310;-87
2022/12/21 07:50:47;;;;;;;51.00;21.17;;;-0.80;99.90;;;;;;5050626;28;20477;-84
2022/12/21 07:53:14;;;;;;;48.28;21.77;;;-0.70;99.90;;;;;;5054524;28;20227;-84
2022/12/21 07:55:42;;;;;;;55.60;22.37;;;-0.70;99.90;;;;;;5047796;28;20244;-84
2022/12/21 07:58:09;;;;;;;54.17;24.37;;;-0.70;99.90;;;;;;5045399;28;20547;-84
2022/12/21 08:00:37;;;;;;;46.10;20.67;;;-0.70;99.90;;;;;;5048217;28;20553;-84
2022/12/21 08:03:04;;;;;;;54.00;21.73;;;-0.60;99.90;;;;;;5048254;28;20489;-84
2022/12/21 08:05:32;;;;;;;58.88;23.27;;;-0.60;99.90;;;;;;5048473;28;20549;-83
2022/12/21 08:08:02;;;;;;;46.38;20.42;;;-0.60;99.90;;;;;;5045865;28;20249;-83
2022/12/21 08:10:29;;;;;;;53.33;21.13;;;-0.50;99.90;;;;;;5047958;28;20241;-83
2022/12/21 08:12:56;;;;;;;56.83;24.93;;;-0.40;99.90;;;;;;5048495;28;20443;-84
2022/12/21 08:15:23;;;;;;;49.73;22.87;;;-0.40;99.90;;;;;;5053060;28;20468;-83
2022/12/21 08:17:51;;;;;;;46.97;22.03;;;-0.30;99.90;;;;;;5047920;28;20506;-83
2022/12/21 08:20:18;;;;;;;55.97;22.27;;;-0.30;99.90;;;;;;5044507;28;20977;-83
2022/12/21 08:22:46;;;;;;;45.33;22.30;;;-0.20;99.90;;;;;;5057500;28;21087;-83
2022/12/21 08:25:13;;;;;;;57.23;20.30;;;-0.10;99.90;;;;;;5055219;28;20475;-84
2022/12/21 08:27:41;;;;;;;47.17;22.77;;;-0.20;99.90;;;;;;5047320;28;20536;-84
2022/12/21 08:30:09;;;;;;;47.40;19.47;;;-0.30;99.90;;;;;;5057559;28;20523;-83
2022/12/21 08:32:36;;;;;;;41.30;21.27;;;-0.30;99.90;;;;;;5056301;28;20455;-83
2022/12/21 08:35:03;;;;;;;46.70;21.37;;;-0.40;99.90;;;;;;5063571;28;20974;-84
2022/12/21 08:37:30;;;;;;;51.17;20.20;;;-0.50;99.90;;;;;;5050221;28;20538;-83
2022/12/21 08:39:59;;;;;;;38.27;19.03;;;-0.50;99.90;;;;;;5060755;28;21004;-83
2022/12/21 08:42:25;;;;;;;52.07;22.40;;;-0.30;99.90;;;;;;5059875;28;20688;-83
2022/12/21 08:44:52;;;;;;;84.00;34.07;;;-0.40;99.90;;;;;;5057385;28;20483;-83
2022/12/21 08:47:19;;;;;;;57.40;22.47;;;-0.20;99.90;;;;;;5049615;28;20487;-83
2022/12/21 08:49:46;;;;;;;74.60;28.33;;;-0.10;99.90;;;;;;5060609;28;20502;-83
2022/12/21 08:52:13;;;;;;;53.00;24.88;;;0.00;99.90;;;;;;5046884;28;20572;-83
2022/12/21 08:54:40;;;;;;;63.23;26.30;;;0.20;99.90;;;;;;5053210;28;20263;-83
2022/12/21 08:57:08;;;;;;;42.13;21.43;;;0.10;99.90;;;;;;5048178;28;20582;-83
2022/12/21 08:59:35;;;;;;;66.50;36.43;;;0.30;99.90;;;;;;5046984;28;20951;-83
2022/12/21 09:02:02;;;;;;;76.27;38.90;;;0.20;99.90;;;;;;5053449;28;20475;-83
2022/12/21 09:04:29;;;;;;;59.87;31.07;;;0.30;99.90;;;;;;5049921;28;20553;-83
2022/12/21 09:06:56;;;;;;;58.27;24.10;;;0.30;99.90;;;;;;5057823;28;20545;-84
2022/12/21 09:09:23;;;;;;;47.77;26.50;;;0.20;99.90;;;;;;5053933;28;20517;-84
2022/12/21 09:11:50;;;;;;;45.60;24.87;;;0.20;99.90;;;;;;5046869;28;20504;-83
2022/12/21 09:14:18;;;;;;;53.40;23.33;;;0.20;99.90;;;;;;5044190;28;20534;-83
2022/12/21 09:16:45;;;;;;;50.27;19.63;;;0.40;99.90;;;;;;5056643;28;20517;-84
2022/12/21 09:19:12;;;;;;;50.80;22.37;;;0.60;99.90;;;;;;5043585;28;20484;-83
2022/12/21 09:21:39;;;;;;;45.20;19.57;;;0.20;99.90;;;;;;5056961;28;20528;-84
2022/12/21 09:24:07;;;;;;;41.83;17.23;;;0.10;99.90;;;;;;5055413;28;20491;-83
2022/12/21 09:26:34;;;;;;;47.97;23.40;;;0.00;99.90;;;;;;5044281;28;20478;-83
2022/12/21 09:29:01;;;;;;;50.40;21.20;;;0.20;99.90;;;;;;5042360;28;20524;-83
2022/12/21 09:31:30;;;;;;;43.50;19.00;;;0.20;99.90;;;;;;5043517;28;20545;-83
2022/12/21 09:33:58;;;;;;;58.50;21.93;;;0.20;99.90;;;;;;5043557;28;20955;-84
2022/12/21 09:36:26;;;;;;;44.00;19.60;;;0.40;99.90;;;;;;5043051;28;20500;-84
2022/12/21 09:38:53;;;;;;;51.23;18.97;;;0.40;99.90;;;;;;5041603;28;20546;-87
2022/12/21 09:41:43;;;;;;;45.97;19.30;;;0.50;99.90;;;;;;5042994;28;20441;-84
2022/12/21 09:44:31;;;;;;;40.87;19.73;;;0.20;99.90;;;;;;5045152;28;21077;-83
2022/12/21 09:47:04;;;;;;;34.33;20.17;;;0.50;99.90;;;;;;5044890;28;20468;-84
2022/12/21 09:49:39;;;;;;;47.70;20.20;;;0.50;99.90;;;;;;5044828;28;21009;-84
2022/12/21 09:52:12;;;;;;;42.30;19.10;;;0.60;99.90;;;;;;5044978;28;21001;-84
2022/12/21 09:54:43;;;;;;;39.80;17.80;;;0.50;99.90;;;;;;5044574;28;20461;-84
2022/12/21 09:57:13;;;;;;;46.60;18.37;;;0.50;99.90;;;;;;5043768;28;20488;-83
2022/12/21 09:59:40;;;;;;;44.93;18.47;;;0.60;99.90;;;;;;5044818;28;20475;-84
2022/12/21 10:02:37;;;;;;;43.00;18.73;;;0.60;99.90;;;;;;5042738;28;20632;-84
2022/12/21 10:05:19;;;;;;;46.80;21.40;;;0.90;99.90;;;;;;5046852;28;20515;-89
2022/12/21 10:08:17;;;;;;;45.63;19.90;;;1.10;99.90;;;;;;5046422;28;20561;-89
2022/12/21 10:10:52;;;;;;;44.07;20.87;;;1.20;99.90;;;;;;5037508;28;20509;-90
2022/12/21 10:13:31;;;;;;;42.70;19.90;;;1.10;99.90;;;;;;5051198;28;21319;-90
2022/12/21 10:16:17;;;;;;;40.87;19.33;;;1.10;99.90;;;;;;5048115;28;20545;-90
2022/12/21 10:18:54;;;;;;;41.37;21.83;;;1.40;99.90;;;;;;5045791;28;20465;-89
2022/12/21 10:21:29;;;;;;;53.20;22.70;;;1.40;99.90;;;;;;5048653;28;20518;-90
2022/12/21 10:23:58;;;;;;;36.27;20.27;;;1.30;99.90;;;;;;5047269;28;20480;-89
2022/12/21 10:26:27;;;;;;;42.33;20.60;;;1.30;99.90;;;;;;5043172;28;20464;-89
2022/12/21 10:29:01;;;;;;;44.73;19.93;;;1.30;99.90;;;;;;5045553;28;20500;-89
2022/12/21 10:31:33;;;;;;;34.87;18.17;;;1.40;99.90;;;;;;5046086;28;20560;-90
2022/12/21 10:34:06;;;;;;;38.17;17.70;;;1.60;99.90;;;;;;5063950;28;20448;-90
2022/12/21 10:36:36;;;;;;;37.60;20.20;;;1.80;99.90;;;;;;5059385;28;20895;-90
2022/12/21 10:39:04;;;;;;;42.60;19.90;;;2.10;99.90;;;;;;5044869;28;20496;-90
2022/12/21 10:41:36;;;;;;;42.67;18.90;;;2.10;99.90;;;;;;5045491;28;20973;-90
2022/12/21 10:44:04;;;;;;;44.23;19.53;;;2.10;99.90;;;;;;5053033;28;20550;-90
2022/12/21 10:46:33;;;;;;;44.47;21.40;;;2.20;99.90;;;;;;5044090;28;20517;-89
2022/12/21 10:49:10;;;;;;;42.43;19.97;;;2.40;99.90;;;;;;5044517;28;20581;-91
2022/12/21 10:51:37;;;;;;;45.00;18.80;;;2.50;99.90;;;;;;5055311;28;20460;-90
2022/12/21 10:54:06;;;;;;;36.38;19.92;;;2.70;99.90;;;;;;5054842;28;20448;-91
2022/12/21 10:56:36;;;;;;;43.50;20.87;;;2.80;99.90;;;;;;5060549;28;20206;-91
2022/12/21 10:59:13;;;;;;;40.30;18.10;;;2.80;99.90;;;;;;5062392;28;20463;-91
2022/12/21 11:01:40;;;;;;;36.87;17.20;;;2.80;99.90;;;;;;5072611;28;20479;-90
2022/12/21 11:04:13;;;;;;;47.27;20.00;;;2.70;99.90;;;;;;5069134;28;20476;-90
2022/12/21 11:06:40;;;;;;;40.00;20.63;;;2.80;99.90;;;;;;5054658;28;20475;-88
2022/12/21 11:09:27;;;;;;;47.30;21.30;;;2.60;99.90;;;;;;5050187;28;20472;-88
2022/12/21 11:11:55;;;;;;;37.40;19.83;;;2.40;99.90;;;;;;5050693;28;20546;-88
2022/12/21 11:14:23;;;;;;;34.40;16.73;;;2.20;99.90;;;;;;5052224;28;20470;-87
2022/12/21 11:16:50;;;;;;;41.67;17.87;;;1.90;99.90;;;;;;5061484;28;20838;-88
2022/12/21 11:19:20;;;;;;;41.87;18.30;;;2.00;99.90;;;;;;5062273;28;20928;-87
2022/12/21 11:21:51;;;;;;;72.37;36.70;;;2.00;99.90;;;;;;5053120;28;20456;-87
2022/12/21 11:24:22;;;;;;;43.70;25.60;;;2.10;99.90;;;;;;5047036;28;20497;-87
2022/12/21 11:26:52;;;;;;;35.97;20.20;;;1.70;99.90;;;;;;5047784;28;20471;-87
2022/12/21 11:29:27;;;;;;;40.37;19.83;;;1.70;99.90;;;;;;5051061;28;20828;-87
2022/12/21 11:31:56;;;;;;;33.70;18.77;;;1.60;99.90;;;;;;5052094;28;20464;-88
2022/12/21 11:34:34;;;;;;;31.73;18.20;;;1.50;99.90;;;;;;5057097;28;20469;-87
2022/12/21 11:37:03;;;;;;;38.53;19.17;;;1.30;99.90;;;;;;5053019;28;21020;-86
2022/12/21 11:39:30;;;;;;;40.77;21.20;;;1.30;99.90;;;;;;5053525;28;20498;-87
2022/12/21 11:41:57;;;;;;;39.50;18.87;;;1.50;99.90;;;;;;5054090;28;20495;-87
2022/12/21 11:44:26;;;;;;;38.70;17.70;;;1.50;99.90;;;;;;5049126;28;20571;-89
2022/12/21 11:47:11;;;;;;;33.87;18.00;;;1.40;99.90;;;;;;5050910;28;20525;-92
2022/12/21 11:50:19;;;;;;;39.47;20.20;;;1.30;99.90;;;;;;5050610;28;20519;-93
2022/12/21 11:52:58;;;;;;;49.37;20.67;;;1.30;99.90;;;;;;5046994;28;20547;-93
2022/12/21 11:55:35;;;;;;;33.67;18.93;;;1.30;99.90;;;;;;5049802;28;20452;-92
2022/12/21 11:58:13;;;;;;;40.87;19.17;;;1.30;99.90;;;;;;5054772;28;20484;-91
2022/12/21 12:00:49;;;;;;;38.40;21.27;;;1.50;99.90;;;;;;5062321;28;20509;-91
2022/12/21 12:03:37;;;;;;;38.53;18.13;;;1.50;99.90;;;;;;5045757;28;20477;-92
2022/12/21 12:06:24;;;;;;;39.67;18.73;;;1.30;99.90;;;;;;5047879;28;20452;-94
2022/12/21 12:09:04;;;;;;;34.00;18.30;;;1.20;99.90;;;;;;5050347;28;20467;-93
2022/12/21 12:11:44;;;;;;;43.73;19.60;;;1.30;99.90;;;;;;5060004;28;20989;-92
2022/12/21 12:14:36;;;;;;;46.67;19.67;;;1.30;99.90;;;;;;5056044;28;20571;-91
2022/12/21 12:17:18;;;;;;;36.80;17.93;;;1.30;99.90;;;;;;5055389;28;20448;-91
2022/12/21 12:19:54;;;;;;;41.03;21.60;;;1.20;99.90;;;;;;5052790;28;20473;-91
2022/12/21 12:22:37;;;;;;;36.50;19.83;;;1.10;99.90;;;;;;5058167;28;20468;-92
2022/12/21 12:25:24;;;;;;;43.00;21.63;;;1.10;99.90;;;;;;5051592;28;20489;-90
2022/12/21 12:28:05;;;;;;;36.80;18.57;;;1.10;99.90;;;;;;5052878;28;20463;-91
2022/12/21 12:30:44;;;;;;;42.83;19.90;;;1.30;99.90;;;;;;5046696;28;20834;-90
2022/12/21 12:33:16;;;;;;;47.10;19.37;;;1.40;99.90;;;;;;5059372;28;20540;-89
2022/12/21 12:36:02;;;;;;;44.60;19.00;;;1.40;99.90;;;;;;5062079;28;20950;-91
2022/12/21 12:38:41;;;;;;;34.97;18.10;;;1.30;99.90;;;;;;5048881;28;20974;-91
2022/12/21 12:41:28;;;;;;;44.87;20.40;;;1.30;99.90;;;;;;5066781;28;20522;-90
2022/12/21 12:44:00;;;;;;;45.23;21.13;;;1.30;99.90;;;;;;5058629;28;20483;-90
2022/12/21 12:46:42;;;;;;;42.90;21.43;;;1.20;99.90;;;;;;5065534;28;20939;-90
2022/12/21 12:49:26;;;;;;;46.27;19.60;;;1.30;99.90;;;;;;5054605;28;20443;-90
2022/12/21 12:51:59;;;;;;;40.93;19.77;;;1.20;99.90;;;;;;5063947;28;20834;-90
2022/12/21 12:54:38;;;;;;;40.87;20.77;;;1.10;99.90;;;;;;5059141;28;20467;-90
2022/12/21 12:57:14;;;;;;;44.37;20.70;;;0.90;99.90;;;;;;5055020;28;20482;-90
2022/12/21 12:59:48;;;;;;;47.27;21.83;;;0.80;99.90;;;;;;5053576;28;20455;-90
2022/12/21 13:02:23;;;;;;;40.87;21.30;;;0.80;99.90;;;;;;5066621;28;20488;-90